Time;durP1;ratioP1;P1;durP2;ratioP2;P2;SDS_P1;SDS_P2;PMS_P1;PMS_P2;Temp;Humidity;BMP_temperature;BMP_pressure;BME280_temperature;BME280_humidity;BME280_pressure;Samples;Min_cycle;Max_cycle;Signal;HPM_P1;HPM_P2
2022/03/17 00:02:06;;;;;;;;;;;;;;;-6.71;54.38;101380.38;4915056;29;19931;-64
2022/03/17 00:04:32;;;;;;;;;;;;;;;-6.72;54.18;101376.13;4899120;29;20457;-64
2022/03/17 00:06:57;;;;;;;;;;;;;;;-6.73;54.20;101378.81;4895286;29;19956;-64
2022/03/17 00:09:23;;;;;;;;;;;;;;;-6.76;54.41;101376.38;4895942;29;19927;-65
2022/03/17 00:11:48;;;;;;;;;;;;;;;-6.79;54.86;101379.09;4896373;29;20158;-64
2022/03/17 00:14:15;;;;;;;;;;;;;;;-6.80;54.05;101382.59;4894775;29;19938;-64
2022/03/17 00:16:40;;;;;;;;;;;;;;;-6.83;54.85;101377.59;4899719;29;19923;-63
2022/03/17 00:19:07;;;;;;;;;;;;;;;-6.85;55.35;101375.09;4899394;29;20057;-65
2022/03/17 00:21:34;;;;;;;;;;;;;;;-6.87;54.29;101367.44;4898035;29;19966;-64
2022/03/17 00:24:00;;;;;;;;;;;;;;;-6.88;54.59;101380.41;4915752;29;19934;-64
2022/03/17 00:26:25;;;;;;;;;;;;;;;-6.89;55.35;101376.16;4916939;29;19927;-64
2022/03/17 00:28:51;;;;;;;;;;;;;;;-6.90;54.51;101371.91;4913107;29;19928;-64
2022/03/17 00:31:17;;;;;;;;;;;;;;;-6.82;54.51;101381.81;4898232;29;20468;-64
2022/03/17 00:33:43;;;;;;;;;;;;;;;-6.83;55.56;101381.00;4906467;29;19931;-63
2022/03/17 00:36:08;;;;;;;;;;;;;;;-6.82;55.02;101387.84;4918068;29;19954;-64
2022/03/17 00:38:33;;;;;;;;;;;;;;;-6.86;54.65;101386.31;4918327;29;19938;-64
2022/03/17 00:40:59;;;;;;;;;;;;;;;-6.87;55.85;101390.63;4917664;29;19927;-63
2022/03/17 00:43:25;;;;;;;;;;;;;;;-6.87;55.26;101387.22;4917921;29;19935;-62
2022/03/17 00:45:50;;;;;;;;;;;;;;;-6.88;54.76;101388.16;4902463;29;19935;-63
2022/03/17 00:48:16;;;;;;;;;;;;;;;-6.87;55.37;101397.53;4901062;29;19964;-65
2022/03/17 00:50:41;;;;;;;;;;;;;;;-6.86;55.77;101386.31;4916557;29;19927;-63
2022/03/17 00:53:07;;;;;;;;;;;;;;;-6.86;55.38;101397.44;4918067;29;19941;-65
2022/03/17 00:55:32;;;;;;;;;;;;;;;-6.88;55.69;101396.72;4917718;29;19934;-64
2022/03/17 00:57:58;;;;;;;;;;;;;;;-6.96;55.86;101401.41;4916298;29;20381;-65
2022/03/17 01:00:23;;;;;;;;;;;;;;;-6.96;56.39;101400.59;4909661;29;19927;-65
2022/03/17 01:02:50;;;;;;;;;;;;;;;-6.96;56.41;101400.59;4916197;29;19937;-65
2022/03/17 01:05:16;;;;;;;;;;;;;;;-6.97;56.07;101398.88;4901631;29;19927;-64
2022/03/17 01:07:41;;;;;;;;;;;;;;;-7.00;56.12;101399.91;4891797;29;19938;-64
2022/03/17 01:10:08;;;;;;;;;;;;;;;-7.00;56.16;101401.63;4916029;29;19927;-67
2022/03/17 01:12:34;;;;;;;;;;;;;;;-6.99;56.63;101403.31;4917599;29;19938;-64
2022/03/17 01:14:59;;;;;;;;;;;;;;;-7.03;55.82;101407.75;4917335;29;19927;-65
2022/03/17 01:17:25;;;;;;;;;;;;;;;-7.04;56.95;101402.69;4916366;29;20855;-64
2022/03/17 01:19:50;;;;;;;;;;;;;;;-7.04;56.56;101410.44;4900212;29;20308;-65
2022/03/17 01:22:16;;;;;;;;;;;;;;;-7.09;56.73;101403.75;4917193;29;19938;-64
2022/03/17 01:24:42;;;;;;;;;;;;;;;-7.10;57.00;101411.56;4917125;29;20389;-64
2022/03/17 01:27:08;;;;;;;;;;;;;;;-7.11;57.14;101415.06;4898703;29;20403;-67
2022/03/17 01:29:34;;;;;;;;;;;;;;;-7.13;57.51;101416.84;4898728;29;19928;-66
2022/03/17 01:31:59;;;;;;;;;;;;;;;-7.17;56.32;101408.44;4896670;29;19932;-65
2022/03/17 01:34:25;;;;;;;;;;;;;;;-7.22;57.12;101420.72;4897228;29;19931;-65
2022/03/17 01:36:50;;;;;;;;;;;;;;;-7.23;56.93;101424.22;4896257;29;19927;-66
2022/03/17 01:39:16;;;;;;;;;;;;;;;-7.21;56.49;101426.69;4903283;29;19927;-65
2022/03/17 01:41:41;;;;;;;;;;;;;;;-7.25;57.69;101428.59;4915432;29;19923;-66
2022/03/17 01:44:07;;;;;;;;;;;;;;;-7.28;57.83;101435.63;4916858;29;19927;-65
2022/03/17 01:47:26;;;;;;;;;;;;;;;-7.24;57.05;101439.72;4915273;29;20018;-66
2022/03/17 01:49:18;;;;;;;;;;;;;;;-7.23;56.53;101437.09;4915100;29;20372;-66
2022/03/17 01:51:48;;;;;;;;;;;;;;;-7.23;56.60;101446.56;4903165;29;19971;-66
2022/03/17 01:54:15;;;;;;;;;;;;;;;-7.32;57.94;101433.22;4904098;29;20052;-62
2022/03/17 01:56:41;;;;;;;;;;;;;;;-7.28;56.78;101444.19;4907706;29;19931;-63
2022/03/17 01:59:06;;;;;;;;;;;;;;;-7.36;58.01;101431.66;4907175;29;19928;-63
2022/03/17 02:01:32;;;;;;;;;;;;;;;-7.37;57.34;101440.31;4905949;29;19998;-62
2022/03/17 02:03:57;;;;;;;;;;;;;;;-7.44;58.27;101436.38;4906401;29;20419;-63
2022/03/17 02:06:23;;;;;;;;;;;;;;;-7.44;58.45;101433.78;4905360;29;19927;-62
2022/03/17 02:08:49;;;;;;;;;;;;;;;-7.48;58.44;101437.41;4907185;29;19978;-63
2022/03/17 02:13:59;;;;;;;;;;;;;;;-7.43;57.00;101432.03;4904380;29;19931;-61
2022/03/17 02:16:27;;;;;;;;;;;;;;;-7.43;58.10;101438.03;4905582;29;19932;-62
2022/03/17 02:18:52;;;;;;;;;;;;;;;-7.44;57.32;101440.66;4896174;29;19931;-63
2022/03/17 02:21:18;;;;;;;;;;;;;;;-7.52;58.01;101425.56;4907315;29;20456;-62
2022/03/17 02:26:28;;;;;;;;;;;;;;;-7.44;57.49;101441.50;4904396;29;19934;-63
2022/03/17 02:28:53;;;;;;;;;;;;;;;-7.44;57.82;101451.81;4898767;29;19931;-64
2022/03/17 02:31:19;;;;;;;;;;;;;;;-7.43;56.80;101457.81;4915597;29;19983;-63
2022/03/17 02:33:45;;;;;;;;;;;;;;;-7.46;57.03;101447.63;4914939;29;20352;-63
2022/03/17 02:36:11;;;;;;;;;;;;;;;-7.47;56.73;101451.09;4914098;29;20067;-62
2022/03/17 02:38:37;;;;;;;;;;;;;;;-7.52;57.50;101455.66;4913421;29;19931;-63
2022/03/17 02:41:02;;;;;;;;;;;;;;;-7.56;57.06;101463.53;4895448;29;19984;-64
2022/03/17 02:43:28;;;;;;;;;;;;;;;-7.61;58.04;101460.31;4897331;29;19931;-63
2022/03/17 02:45:53;;;;;;;;;;;;;;;-7.65;58.90;101461.34;4911600;29;19959;-64
2022/03/17 02:48:19;;;;;;;;;;;;;;;-7.66;58.99;101466.56;4914616;29;20026;-65
2022/03/17 02:50:45;;;;;;;;;;;;;;;-7.67;58.44;101464.91;4908563;29;19975;-65
2022/03/17 02:53:11;;;;;;;;;;;;;;;-7.68;57.61;101471.78;4897183;29;19938;-66
2022/03/17 02:55:37;;;;;;;;;;;;;;;-7.71;58.77;101469.34;4895371;29;19934;-64
2022/03/17 02:58:03;;;;;;;;;;;;;;;-7.72;57.46;101472.84;4897228;29;19931;-65
2022/03/17 03:00:29;;;;;;;;;;;;;;;-7.74;58.06;101484.09;4905410;29;19934;-65
2022/03/17 03:02:54;;;;;;;;;;;;;;;-7.76;57.36;101473.88;4915918;29;19935;-65
2022/03/17 03:05:20;;;;;;;;;;;;;;;-7.79;58.71;101479.19;4915110;29;19942;-63
2022/03/17 03:07:45;;;;;;;;;;;;;;;-7.81;57.78;101488.69;4898460;29;20365;-65
2022/03/17 03:10:11;;;;;;;;;;;;;;;-7.83;59.04;101491.31;4913807;29;20067;-66
2022/03/17 03:12:37;;;;;;;;;;;;;;;-7.85;58.45;101490.56;4915814;29;19968;-64
2022/03/17 03:15:03;;;;;;;;;;;;;;;-7.85;59.03;101492.31;4915720;29;19931;-64
2022/03/17 03:17:29;;;;;;;;;;;;;;;-7.87;57.88;101494.94;4914189;29;19985;-64
2022/03/17 03:19:55;;;;;;;;;;;;;;;-7.91;58.60;101492.56;4915718;29;20408;-64
2022/03/17 03:22:20;;;;;;;;;;;;;;;-8.00;58.44;101494.66;4897639;29;19932;-64
2022/03/17 03:24:46;;;;;;;;;;;;;;;-8.00;58.52;101489.50;4895387;29;19933;-64
2022/03/17 03:27:12;;;;;;;;;;;;;;;-8.00;58.08;101496.38;4896529;29;20308;-65
2022/03/17 03:29:37;;;;;;;;;;;;;;;-8.00;57.87;101504.09;4912366;29;19927;-63
2022/03/17 03:32:05;;;;;;;;;;;;;;;-8.02;57.79;101499.03;4915385;29;19931;-65
2022/03/17 03:34:32;;;;;;;;;;;;;;;-7.98;58.42;101510.03;4915491;29;19927;-64
2022/03/17 03:39:41;;;;;;;;;;;;;;;-7.94;57.79;101506.44;4915653;29;19950;-65
2022/03/17 03:42:07;;;;;;;;;;;;;;;-7.92;58.74;101511.50;4897865;29;20397;-64
2022/03/17 03:44:33;;;;;;;;;;;;;;;-7.88;58.21;101520.75;4895011;29;19927;-65
2022/03/17 03:46:58;;;;;;;;;;;;;;;-7.80;58.48;101513.53;4896509;29;20215;-64
2022/03/17 03:49:24;;;;;;;;;;;;;;;-7.71;57.12;101512.28;4897381;29;20556;-66
2022/03/17 03:51:49;;;;;;;;;;;;;;;-7.62;57.82;101522.19;4918493;29;20467;-65
2022/03/17 03:54:18;;;;;;;;;;;;;;;-7.50;56.76;101520.78;4918830;29;20405;-66
2022/03/17 03:56:48;;;;;;;;;;;;;;;-7.49;57.47;101522.50;4918665;29;19923;-65
2022/03/17 03:59:19;;;;;;;;;;;;;;;-7.41;56.76;101525.53;4906086;29;19928;-66
2022/03/17 04:01:45;;;;;;;;;;;;;;;-7.29;57.50;101529.28;4899570;29;20285;-65
2022/03/17 04:04:16;;;;;;;;;;;;;;;-7.14;55.39;101536.34;4899933;29;19933;-65
2022/03/17 04:06:45;;;;;;;;;;;;;;;-7.00;55.49;101538.25;4898483;29;20449;-64
2022/03/17 04:09:12;;;;;;;;;;;;;;;-6.91;55.42;101535.25;4900018;29;19934;-65
2022/03/17 04:11:38;;;;;;;;;;;;;;;-6.81;54.44;101531.34;4918272;29;20381;-65
2022/03/17 04:14:04;;;;;;;;;;;;;;;-6.74;53.82;101542.19;4918068;29;19927;-65
2022/03/17 04:16:29;;;;;;;;;;;;;;;-6.71;54.44;101545.44;4909627;29;19928;-65
2022/03/17 04:18:55;;;;;;;;;;;;;;;-6.71;54.13;101545.44;4911080;29;19931;-65
2022/03/17 04:21:20;;;;;;;;;;;;;;;-6.68;54.49;101547.06;4918317;29;20002;-66
2022/03/17 04:23:46;;;;;;;;;;;;;;;-6.64;53.03;101544.28;4917915;29;19938;-65
2022/03/17 04:26:11;;;;;;;;;;;;;;;-6.60;53.42;101547.53;4914257;29;19950;-66
2022/03/17 04:28:37;;;;;;;;;;;;;;;-6.61;53.59;101547.63;4901096;29;19931;-65
2022/03/17 04:31:03;;;;;;;;;;;;;;;-6.61;53.85;101557.94;4918011;29;19926;-65
2022/03/17 04:33:29;;;;;;;;;;;;;;;-6.66;54.25;101556.41;4882648;29;19931;-66
2022/03/17 04:35:55;;;;;;;;;;;;;;;-6.66;53.40;101563.31;4899764;29;19935;-66
2022/03/17 04:38:20;;;;;;;;;;;;;;;-6.70;53.98;101566.94;4899653;29;20316;-65
2022/03/17 04:40:49;;;;;;;;;;;;;;;-6.71;53.76;101567.84;4898860;29;20021;-65
2022/03/17 04:43:18;;;;;;;;;;;;;;;-6.73;53.64;101565.34;4916619;29;19941;-65
2022/03/17 04:45:44;;;;;;;;;;;;;;;-6.72;53.63;101574.75;4917676;29;20029;-64
2022/03/17 04:48:10;;;;;;;;;;;;;;;-6.74;53.27;101571.38;4901503;29;20030;-64
2022/03/17 04:50:35;;;;;;;;;;;;;;;-6.76;53.57;101569.81;4899426;29;20018;-64
2022/03/17 04:55:45;;;;;;;;;;;;;;;-6.75;52.33;101574.88;4897482;29;20321;-63
2022/03/17 04:58:11;;;;;;;;;;;;;;;-6.74;53.31;101578.28;4913402;29;19979;-65
2022/03/17 05:00:36;;;;;;;;;;;;;;;-6.68;53.19;101583.16;4917666;29;19934;-62
2022/03/17 05:03:02;;;;;;;;;;;;;;;-6.65;53.07;101581.31;4900995;29;19974;-62
2022/03/17 05:05:28;;;;;;;;;;;;;;;-6.60;52.75;101588.81;4881510;29;19928;-66
2022/03/17 05:07:57;;;;;;;;;;;;;;;-6.51;52.38;101587.53;4897029;29;19958;-63
2022/03/17 05:10:23;;;;;;;;;;;;;;;-6.46;52.82;101593.31;4898560;29;19959;-63
2022/03/17 05:12:48;;;;;;;;;;;;;;;-6.41;52.76;101597.34;4904242;29;19931;-63
2022/03/17 05:15:14;;;;;;;;;;;;;;;-6.40;51.44;101593.84;4911341;29;19934;-64
2022/03/17 05:17:40;;;;;;;;;;;;;;;-6.42;51.36;101602.56;4911298;29;19959;-67
2022/03/17 05:20:10;;;;;;;;;;;;;;;-6.30;51.77;101596.81;4917374;29;19927;-66
2022/03/17 05:22:36;;;;;;;;;;;;;;;-6.28;51.04;101612.22;4915615;29;20389;-69
2022/03/17 05:25:04;;;;;;;;;;;;;;;-6.27;51.34;101603.56;4915725;29;19934;-68
2022/03/17 05:27:30;;;;;;;;;;;;;;;-6.18;50.77;101606.56;4916194;29;19942;-69
2022/03/17 05:29:55;;;;;;;;;;;;;;;-6.17;51.13;101608.22;4915800;29;19927;-68
2022/03/17 05:32:21;;;;;;;;;;;;;;;-6.03;50.78;101614.44;4915219;29;19934;-66
2022/03/17 05:34:46;;;;;;;;;;;;;;;-5.93;50.52;101610.50;4917378;29;19938;-70
2022/03/17 05:37:12;;;;;;;;;;;;;;;-5.80;50.44;101615.84;4909437;29;19927;-71
2022/03/17 05:39:37;;;;;;;;;;;;;;;-5.74;49.79;101618.94;4884354;29;20064;-67
2022/03/17 05:42:03;;;;;;;;;;;;;;;-5.66;49.45;101616.00;4911478;29;19927;-69
2022/03/17 05:44:29;;;;;;;;;;;;;;;-5.56;49.43;101626.69;4913487;29;20344;-66
2022/03/17 05:46:55;;;;;;;;;;;;;;;-5.48;49.13;101616.78;4908112;29;19974;-66
2022/03/17 05:49:20;;;;;;;;;;;;;;;-5.42;48.72;101618.22;4896341;29;20309;-69
2022/03/17 05:51:46;;;;;;;;;;;;;;;-5.23;48.41;101631.03;4904653;29;19931;-70
2022/03/17 05:54:12;;;;;;;;;;;;;;;-5.16;47.90;101620.28;4915220;29;19949;-69
2022/03/17 05:56:37;;;;;;;;;;;;;;;-5.07;47.41;101618.97;4900406;29;20317;-65
2022/03/17 05:59:03;;;;;;;;;;;;;;;-4.90;46.65;101626.66;4866940;29;19934;-62
2022/03/17 06:01:29;;;;;;;;;;;;;;;-4.74;46.88;101618.88;4897260;29;19971;-64
2022/03/17 06:03:54;;;;;;;;;;;;;;;-4.51;46.47;101625.38;4901668;29;19934;-66
2022/03/17 06:06:20;;;;;;;;;;;;;;;-4.47;45.55;101631.22;4915869;29;19950;-66
2022/03/17 06:08:45;;;;;;;;;;;;;;;-4.43;45.19;101633.56;4893799;29;19946;-66
2022/03/17 06:11:11;;;;;;;;;;;;;;;-4.44;45.15;101638.81;4896573;29;19934;-65
2022/03/17 06:13:36;;;;;;;;;;;;;;;-4.37;45.01;101634.97;4912714;29;20453;-66
2022/03/17 06:16:02;;;;;;;;;;;;;;;-4.30;44.91;101636.28;4913643;29;19927;-66
2022/03/17 06:18:27;;;;;;;;;;;;;;;-4.18;43.16;101634.75;4897169;29;19953;-65
2022/03/17 06:20:53;;;;;;;;;;;;;;;-4.06;43.99;101628.88;4911674;29;19927;-66
2022/03/17 06:23:18;;;;;;;;;;;;;;;-3.98;43.13;101636.22;4912175;29;20300;-66
2022/03/17 06:25:44;;;;;;;;;;;;;;;-3.91;43.00;101640.16;4912169;29;19927;-66
2022/03/17 06:28:09;;;;;;;;;;;;;;;-3.85;43.21;101644.97;4894470;29;19931;-66
2022/03/17 06:30:35;;;;;;;;;;;;;;;-3.72;42.97;101647.69;4907966;29;20348;-66
2022/03/17 06:33:01;;;;;;;;;;;;;;;-3.70;41.62;101645.84;4912370;29;19938;-66
2022/03/17 06:35:27;;;;;;;;;;;;;;;-3.61;41.52;101640.13;4914323;29;19927;-68
2022/03/17 06:37:53;;;;;;;;;;;;;;;-3.50;40.48;101642.91;4906457;29;19971;-67
2022/03/17 06:40:19;;;;;;;;;;;;;;;-3.43;40.71;101640.78;4913091;29;19927;-66
2022/03/17 06:42:45;;;;;;;;;;;;;;;-3.33;40.94;101641.88;4912765;29;19935;-68
2022/03/17 06:45:11;;;;;;;;;;;;;;;-3.18;40.65;101642.72;4912585;29;20463;-67
2022/03/17 06:47:37;;;;;;;;;;;;;;;-3.14;38.38;101646.81;4899902;29;19931;-63
2022/03/17 06:50:02;;;;;;;;;;;;;;;-3.06;38.37;101647.19;4900504;29;19927;-64
2022/03/17 06:52:29;;;;;;;;;;;;;;;-2.95;38.28;101643.06;4898803;29;19938;-63
2022/03/17 06:54:54;;;;;;;;;;;;;;;-2.86;38.04;101645.09;4902213;29;20171;-63
2022/03/17 06:57:20;;;;;;;;;;;;;;;-2.72;38.73;101644.25;4903791;29;19954;-64
2022/03/17 06:59:46;;;;;;;;;;;;;;;-2.76;37.67;101639.25;4899858;29;19931;-63
2022/03/17 07:02:12;;;;;;;;;;;;;;;-2.75;37.36;101653.06;4886003;29;20023;-63
2022/03/17 07:04:38;;;;;;;;;;;;;;;-2.79;37.13;101647.22;4875001;29;19978;-64
2022/03/17 07:07:03;;;;;;;;;;;;;;;-2.65;37.61;101646.34;4909282;29;19927;-64
2022/03/17 07:09:29;;;;;;;;;;;;;;;-2.73;37.21;101651.22;4912093;29;20409;-65
2022/03/17 07:11:54;;;;;;;;;;;;;;;-2.68;36.82;101646.53;4909541;29;20396;-66
2022/03/17 07:14:20;;;;;;;;;;;;;;;-2.68;37.00;101653.50;4910525;29;20401;-65
2022/03/17 07:16:45;;;;;;;;;;;;;;;-2.66;36.07;101646.47;4909309;29;19997;-64
2022/03/17 07:19:11;;;;;;;;;;;;;;;-2.60;35.76;101649.50;4905664;29;19927;-65
2022/03/17 07:21:36;;;;;;;;;;;;;;;-2.57;35.61;101641.50;4912137;29;19986;-62
2022/03/17 07:24:03;;;;;;;;;;;;;;;-2.54;35.54;101641.31;4892013;29;19928;-64
2022/03/17 07:26:28;;;;;;;;;;;;;;;-2.44;35.85;101645.91;4894940;29;19931;-63
2022/03/17 07:28:54;;;;;;;;;;;;;;;-2.41;34.67;101643.13;4894819;29;19927;-65
2022/03/17 07:31:21;;;;;;;;;;;;;;;-2.46;35.08;101651.22;4880375;29;20349;-65
2022/03/17 07:33:48;;;;;;;;;;;;;;;-2.43;35.08;101647.63;4894692;29;20011;-65
2022/03/17 07:36:14;;;;;;;;;;;;;;;-2.51;36.05;101650.69;4896550;29;20500;-63
2022/03/17 07:38:39;;;;;;;;;;;;;;;-2.26;34.17;101659.50;4900192;29;20030;-64
2022/03/17 07:41:05;;;;;;;;;;;;;;;-2.12;34.40;101652.50;4915911;29;20211;-64
2022/03/17 07:43:30;;;;;;;;;;;;;;;-2.08;33.69;101656.56;4917205;29;19931;-65
2022/03/17 07:46:14;;;;;;;;;;;;;;;-2.00;32.16;101668.22;4915757;29;19972;-66
2022/03/17 07:48:45;;;;;;;;;;;;;;;-2.02;33.05;101665.72;4909971;29;20289;-61
2022/03/17 07:51:20;;;;;;;;;;;;;;;-2.02;32.35;101665.72;4917004;29;20032;-66
2022/03/17 07:53:46;;;;;;;;;;;;;;;-1.97;30.58;101663.66;4899130;29;20475;-67
2022/03/17 07:56:12;;;;;;;;;;;;;;;-1.94;30.11;101662.59;4912533;29;19934;-66
2022/03/17 07:58:37;;;;;;;;;;;;;;;-1.96;28.91;101662.72;4904018;29;19932;-62
2022/03/17 08:01:03;;;;;;;;;;;;;;;-1.95;28.88;101660.97;4914986;29;19985;-66
2022/03/17 08:03:28;;;;;;;;;;;;;;;-1.97;29.43;101678.41;4913533;29;20312;-66
2022/03/17 08:05:54;;;;;;;;;;;;;;;-1.88;28.55;101672.63;4917147;29;19927;-66
2022/03/17 08:08:20;;;;;;;;;;;;;;;-1.91;28.35;101672.81;4904420;29;19931;-65
2022/03/17 08:10:45;;;;;;;;;;;;;;;-1.96;28.77;101669.69;4894091;29;20502;-65
2022/03/17 08:13:11;;;;;;;;;;;;;;;-1.90;29.00;101687.50;4886236;29;19931;-64
2022/03/17 08:15:37;;;;;;;;;;;;;;;-1.83;28.20;101680.94;4906516;29;19999;-63
2022/03/17 08:18:03;;;;;;;;;;;;;;;-1.90;28.01;101683.13;4896216;29;20346;-65
2022/03/17 08:20:30;;;;;;;;;;;;;;;-1.83;28.29;101684.38;4899916;29;19968;-62
2022/03/17 08:22:58;;;;;;;;;;;;;;;-1.72;28.52;101682.84;4867622;29;20320;-62
2022/03/17 08:25:24;;;;;;;;;;;;;;;-1.64;27.96;101677.97;4913477;29;20010;-61
2022/03/17 08:27:54;;;;;;;;;;;;;;;-1.61;27.27;101693.38;4896065;29;20003;-65
2022/03/17 08:30:20;;;;;;;;;;;;;;;-1.66;27.62;101679.84;4883465;29;20014;-63
2022/03/17 08:32:46;;;;;;;;;;;;;;;-1.73;27.26;101684.63;4897800;29;20042;-64
2022/03/17 08:35:12;;;;;;;;;;;;;;;-1.83;27.81;101689.56;4913306;29;19931;-63
2022/03/17 08:37:39;;;;;;;;;;;;;;;-1.80;28.25;101679.91;4913578;29;19938;-64
2022/03/17 08:40:05;;;;;;;;;;;;;;;-1.68;28.32;101685.13;4913206;29;19954;-63
2022/03/17 08:42:31;;;;;;;;;;;;;;;-1.58;28.15;101687.13;4903551;29;20401;-62
2022/03/17 08:44:56;;;;;;;;;;;;;;;-1.58;28.45;101685.38;4916865;29;19974;-63
2022/03/17 08:50:06;;;;;;;;;;;;;;;-1.55;27.68;101694.75;4915118;29;19931;-61
2022/03/17 08:52:32;;;;;;;;;;;;;;;-1.55;27.55;101697.34;4910146;29;19955;-63
2022/03/17 08:54:58;;;;;;;;;;;;;;;-1.62;27.77;101700.34;4912407;29;20308;-63
2022/03/17 08:57:23;;;;;;;;;;;;;;;-1.56;27.57;101685.25;4895465;29;19931;-64
2022/03/17 08:59:49;;;;;;;;;;;;;;;-1.51;28.77;101701.38;4894397;29;19943;-66
2022/03/17 09:02:14;;;;;;;;;;;;;;;-1.46;28.69;101700.16;4906583;29;19942;-64
2022/03/17 09:04:40;;;;;;;;;;;;;;;-1.38;27.63;101697.88;4916018;29;19992;-67
2022/03/17 09:07:06;;;;;;;;;;;;;;;-1.40;27.66;101696.31;4899537;29;20480;-66
2022/03/17 09:09:33;;;;;;;;;;;;;;;-1.46;27.42;101700.16;4900068;29;20401;-63
2022/03/17 09:12:00;;;;;;;;;;;;;;;-1.34;26.95;101695.91;4894188;29;20022;-64
2022/03/17 09:14:26;;;;;;;;;;;;;;;-1.26;27.56;101683.19;4904955;29;20238;-64
2022/03/17 09:16:52;;;;;;;;;;;;;;;-1.24;27.88;101693.50;4893118;29;19938;-62
2022/03/17 09:19:20;;;;;;;;;;;;;;;-1.22;27.62;101702.03;4897910;29;20086;-67
2022/03/17 09:21:46;;;;;;;;;;;;;;;-1.07;27.57;101692.34;4884143;29;20444;-63
2022/03/17 09:24:12;;;;;;;;;;;;;;;-1.08;28.01;101694.13;4893153;29;19927;-65
2022/03/17 09:26:37;;;;;;;;;;;;;;;-1.00;28.38;101702.25;4897840;29;19927;-63
2022/03/17 09:29:03;;;;;;;;;;;;;;;-1.00;27.69;101693.56;4884661;29;20018;-61
2022/03/17 09:31:29;;;;;;;;;;;;;;;-0.94;27.65;101709.63;4873389;29;19931;-63
2022/03/17 09:33:55;;;;;;;;;;;;;;;-0.89;27.91;101698.06;4900989;29;20523;-66
2022/03/17 09:36:21;;;;;;;;;;;;;;;-0.74;27.51;101702.19;4902824;29;20025;-63
2022/03/17 09:41:33;;;;;;;;;;;;;;;-0.83;27.25;101692.41;4902490;29;20048;-63
2022/03/17 09:43:59;;;;;;;;;;;;;;;-0.80;27.09;101689.59;4901473;29;19927;-65
2022/03/17 09:46:24;;;;;;;;;;;;;;;-0.85;26.96;101700.34;4892972;29;19928;-62
2022/03/17 09:48:52;;;;;;;;;;;;;;;-0.84;26.76;101689.00;4889705;29;19932;-63
2022/03/17 09:51:20;;;;;;;;;;;;;;;-0.72;26.97;101687.31;4865411;29;19927;-66
2022/03/17 09:53:47;;;;;;;;;;;;;;;-0.75;26.45;101685.75;4870457;29;20053;-66
2022/03/17 09:56:13;;;;;;;;;;;;;;;-0.61;26.23;101687.38;4876133;29;20046;-66
2022/03/17 09:58:39;;;;;;;;;;;;;;;-0.63;26.29;101688.44;4907010;29;19938;-67
2022/03/17 10:01:06;;;;;;;;;;;;;;;-0.53;25.76;101692.03;4909441;29;19927;-63
2022/03/17 10:03:34;;;;;;;;;;;;;;;-0.56;26.41;101684.44;4885349;29;20030;-67
2022/03/17 10:06:02;;;;;;;;;;;;;;;-0.49;26.45;101668.28;4893164;29;19927;-65
2022/03/17 10:08:28;;;;;;;;;;;;;;;-0.50;26.32;101678.78;4900076;29;19974;-66
2022/03/17 10:10:53;;;;;;;;;;;;;;;-0.54;27.01;101678.19;4911728;29;20387;-66
2022/03/17 10:13:22;;;;;;;;;;;;;;;-0.48;26.69;101679.50;4892257;29;20332;-66
2022/03/17 10:16:08;;;;;;;;;;;;;;;-0.34;26.37;101665.50;4895377;29;19926;-64
2022/03/17 10:18:37;;;;;;;;;;;;;;;-0.28;26.56;101667.66;4897661;29;20392;-66
2022/03/17 10:21:06;;;;;;;;;;;;;;;-0.31;26.26;101662.69;4914767;29;20300;-67
2022/03/17 10:23:31;;;;;;;;;;;;;;;-0.36;26.62;101670.00;4906517;29;20022;-64
2022/03/17 10:25:57;;;;;;;;;;;;;;;-0.35;26.44;101666.47;4902937;29;20025;-62
2022/03/17 10:28:26;;;;;;;;;;;;;;;-0.36;26.50;101651.75;4873533;29;19931;-67
2022/03/17 10:31:03;;;;;;;;;;;;;;;-0.29;25.89;101661.63;4902320;29;20290;-65
2022/03/17 10:33:29;;;;;;;;;;;;;;;-0.33;26.44;101664.56;4902150;29;19930;-66
2022/03/17 10:35:54;;;;;;;;;;;;;;;-0.24;26.72;101672.56;4911394;29;20324;-62
2022/03/17 10:38:25;;;;;;;;;;;;;;;-0.22;26.64;101662.00;4909484;29;19962;-64
2022/03/17 10:41:01;;;;;;;;;;;;;;;-0.22;26.06;101659.41;4892426;29;20322;-65
2022/03/17 10:43:29;;;;;;;;;;;;;;;-0.16;26.00;101658.13;4878183;29;19932;-66
2022/03/17 10:46:03;;;;;;;;;;;;;;;-0.11;26.26;101661.25;4875972;29;19927;-69
2022/03/17 10:48:29;;;;;;;;;;;;;;;-0.04;25.75;101652.00;4890194;29;20389;-70
2022/03/17 10:50:55;;;;;;;;;;;;;;;0.05;25.82;101668.75;4879857;29;19982;-72
2022/03/17 10:53:26;;;;;;;;;;;;;;;0.06;25.22;101654.75;4906620;29;20021;-69
2022/03/17 10:55:51;;;;;;;;;;;;;;;0.02;25.52;101648.13;4868362;29;19927;-68
2022/03/17 10:58:18;;;;;;;;;;;;;;;-0.02;25.77;101652.75;4890907;29;20334;-68
2022/03/17 11:00:46;;;;;;;;;;;;;;;0.06;25.46;101654.75;4908045;29;19974;-68
2022/03/17 11:03:12;;;;;;;;;;;;;;;0.12;25.46;101652.56;4892621;29;19977;-68
2022/03/17 11:05:37;;;;;;;;;;;;;;;0.17;26.11;101647.81;4902264;29;19966;-70
2022/03/17 11:08:05;;;;;;;;;;;;;;;0.09;25.40;101646.72;4898126;29;19931;-68
2022/03/17 11:10:30;;;;;;;;;;;;;;;0.12;25.74;101652.56;4894332;29;19933;-73
2022/03/17 11:12:56;;;;;;;;;;;;;;;0.14;25.73;101639.38;4906842;29;19931;-74
2022/03/17 11:15:26;;;;;;;;;;;;;;;0.21;25.33;101648.44;4889620;29;19966;-71
2022/03/17 11:17:52;;;;;;;;;;;;;;;0.22;25.88;101650.09;4890692;29;20014;-73
2022/03/17 11:20:18;;;;;;;;;;;;;;;0.30;25.39;101641.69;4873590;29;20035;-72
2022/03/17 11:22:50;;;;;;;;;;;;;;;0.31;25.41;101645.97;4890604;29;19931;-69
2022/03/17 11:25:16;;;;;;;;;;;;;;;0.37;25.98;101637.66;4906851;29;19970;-71
2022/03/17 11:27:49;;;;;;;;;;;;;;;0.43;25.86;101634.59;4910199;29;20496;-70
2022/03/17 11:30:15;;;;;;;;;;;;;;;0.27;26.07;101640.16;4908455;29;20427;-71
2022/03/17 11:32:54;;;;;;;;;;;;;;;0.26;25.41;101641.06;4910797;29;20367;-68
2022/03/17 11:35:20;;;;;;;;;;;;;;;0.30;25.73;101637.31;4908968;29;19927;-69
2022/03/17 11:37:46;;;;;;;;;;;;;;;0.33;25.86;101636.25;4908662;29;20066;-70
2022/03/17 11:40:13;;;;;;;;;;;;;;;0.33;25.68;101631.84;4863954;29;20042;-72
2022/03/17 11:42:39;;;;;;;;;;;;;;;0.37;25.79;101624.63;4889315;29;20464;-69
2022/03/17 11:45:14;;;;;;;;;;;;;;;0.35;26.22;101629.94;4906170;29;19994;-70
2022/03/17 11:47:43;;;;;;;;;;;;;;;0.40;25.43;101630.44;4907364;29;19987;-69
2022/03/17 11:50:18;;;;;;;;;;;;;;;0.34;26.19;101635.28;4890019;29;19927;-69
2022/03/17 11:52:44;;;;;;;;;;;;;;;0.39;26.65;101630.56;4889051;29;20384;-70
2022/03/17 11:55:36;;;;;;;;;;;;;;;0.38;25.82;101629.75;4902553;29;19934;-70
2022/03/17 11:58:20;;;;;;;;;;;;;;;0.33;26.03;101617.97;4909904;29;20401;-71
2022/03/17 12:00:52;;;;;;;;;;;;;;;0.35;26.05;101627.31;4890760;29;19933;-69
2022/03/17 12:03:39;;;;;;;;;;;;;;;0.44;26.13;101618.84;4890750;29;19936;-72
2022/03/17 12:06:08;;;;;;;;;;;;;;;0.42;26.65;101620.72;4892943;29;20298;-74
2022/03/17 12:08:37;;;;;;;;;;;;;;;0.43;26.25;101618.94;4890546;29;20022;-74
2022/03/17 12:11:09;;;;;;;;;;;;;;;0.51;25.95;101613.16;4897889;29;19953;-74
2022/03/17 12:13:35;;;;;;;;;;;;;;;0.53;26.15;101608.63;4909796;29;19943;-70
2022/03/17 12:16:01;;;;;;;;;;;;;;;0.54;25.91;101613.72;4898278;29;20098;-71
2022/03/17 12:18:28;;;;;;;;;;;;;;;0.51;26.22;101616.56;4896484;29;19931;-70
2022/03/17 12:20:53;;;;;;;;;;;;;;;0.48;26.10;101614.19;4914767;29;20410;-68
2022/03/17 12:23:38;;;;;;;;;;;;;;;0.53;25.62;101598.19;4910521;29;20013;-69
2022/03/17 12:26:04;;;;;;;;;;;;;;;0.50;25.77;101604.50;4895146;29;19927;-72
2022/03/17 12:28:32;;;;;;;;;;;;;;;0.51;26.01;101606.13;4892629;29;19931;-69
2022/03/17 12:30:58;;;;;;;;;;;;;;;0.50;26.04;101614.06;4895746;29;19931;-70
2022/03/17 12:33:25;;;;;;;;;;;;;;;0.53;26.83;101596.44;4894576;29;20038;-72
2022/03/17 12:36:10;;;;;;;;;;;;;;;0.53;26.31;101596.44;4898277;29;20416;-72
2022/03/17 12:38:36;;;;;;;;;;;;;;;0.57;26.18;101600.44;4903431;29;19939;-72
2022/03/17 12:41:02;;;;;;;;;;;;;;;0.51;26.67;101592.25;4914367;29;20392;-72
2022/03/17 12:43:27;;;;;;;;;;;;;;;0.57;26.48;101595.22;4904501;29;20433;-75
2022/03/17 12:45:53;;;;;;;;;;;;;;;0.61;26.23;101598.41;4905363;29;19927;-71
2022/03/17 12:48:19;;;;;;;;;;;;;;;0.58;25.89;101594.25;4904464;29;20301;-71
2022/03/17 12:50:45;;;;;;;;;;;;;;;0.59;25.80;101589.88;4905682;29;20074;-67
2022/03/17 12:53:11;;;;;;;;;;;;;;;0.55;25.79;101589.28;4902994;29;19942;-71